Time;durP1;ratioP1;P1;durP2;ratioP2;P2;SDS_P1;SDS_P2;PMS_P1;PMS_P2;Temp;Humidity;BMP_temperature;BMP_pressure;BME280_temperature;BME280_humidity;BME280_pressure;Samples;Min_cycle;Max_cycle;Signal;HPM_P1;HPM_P2
2021/10/01 00:01:43;;;;;;;3.80;1.98;;;;;;;9.69;86.34;101598.28;5071103;28;20472;-72
2021/10/01 00:04:11;;;;;;;7.25;1.92;;;;;;;9.71;86.27;101598.97;5071739;28;20075;-73
2021/10/01 00:06:37;;;;;;;4.15;1.67;;;;;;;9.76;86.24;101598.56;5071753;28;20457;-73
2021/10/01 00:09:02;;;;;;;6.97;1.90;;;;;;;9.71;86.16;101595.47;5071379;28;20040;-73
2021/10/01 00:11:28;;;;;;;4.60;1.80;;;;;;;9.70;86.36;101594.63;5054291;28;20101;-73
2021/10/01 00:13:54;;;;;;;7.10;1.87;;;;;;;9.78;86.42;101603.75;5071696;28;20035;-73
2021/10/01 00:16:19;;;;;;;7.07;2.43;;;;;;;9.75;86.31;101604.03;5053666;28;20048;-73
2021/10/01 00:18:45;;;;;;;8.48;2.00;;;;;;;9.77;86.46;101600.25;5054091;28;20044;-72
2021/10/01 00:21:10;;;;;;;6.90;1.60;;;;;;;9.78;86.05;101596.59;5054323;28;20028;-73
2021/10/01 00:23:36;;;;;;;2.90;1.60;;;;;;;9.91;85.44;101577.69;5071224;28;20106;-73
2021/10/01 00:26:03;;;;;;;5.07;1.70;;;;;;;9.83;85.52;101580.19;5071252;28;20047;-72
2021/10/01 00:28:28;;;;;;;7.00;1.92;;;;;;;9.80;85.97;101575.13;5070197;28;20132;-72
2021/10/01 00:30:54;;;;;;;8.17;2.13;;;;;;;9.76;85.71;101568.38;5053569;28;20115;-73
2021/10/01 00:33:21;;;;;;;7.35;1.58;;;;;;;9.77;85.78;101572.75;5071241;28;20279;-73
2021/10/01 00:35:47;;;;;;;6.97;1.73;;;;;;;9.76;85.86;101566.56;5071086;28;20082;-73
2021/10/01 00:38:13;;;;;;;4.80;1.73;;;;;;;9.72;85.61;101552.66;5070083;28;20029;-72
2021/10/01 00:40:39;;;;;;;5.30;1.67;;;;;;;9.80;85.27;101551.13;5053599;28;20428;-73
2021/10/01 00:43:05;;;;;;;3.53;1.80;;;;;;;9.80;85.30;101545.81;5053455;28;20028;-73
2021/10/01 00:45:30;;;;;;;8.82;1.90;;;;;;;9.85;85.31;101551.56;5070150;28;20033;-73
2021/10/01 00:47:56;;;;;;;6.20;1.70;;;;;;;9.85;84.96;101543.56;5069913;28;20108;-73
2021/10/01 00:50:22;;;;;;;3.00;1.30;;;;;;;9.88;84.67;101545.94;5053478;28;20029;-73
2021/10/01 00:52:49;;;;;;;;;;;;;;;9.91;84.74;101543.03;5071413;28;20389;-73
2021/10/01 00:55:15;;;;;;;4.82;2.03;;;;;;;9.90;84.82;101541.31;5071086;28;20003;-73
2021/10/01 00:57:41;;;;;;;;;;;;;;;9.88;85.13;101540.59;5070285;28;20093;-73
2021/10/01 01:00:09;;;;;;;;;;;;;;;9.90;84.91;101541.31;5037146;28;19916;-72
2021/10/01 01:02:36;;;;;;;8.10;1.63;;;;;;;9.94;84.79;101532.06;5069453;28;19959;-73
2021/10/01 01:05:03;;;;;;;8.67;1.57;;;;;;;9.90;84.98;101536.84;5069952;28;20088;-73
2021/10/01 01:07:49;;;;;;;5.05;1.75;;;;;;;9.92;84.85;101534.03;5053038;28;20029;-73
2021/10/01 01:10:39;;;;;;;5.18;1.75;;;;;;;9.91;84.78;101521.69;5052556;28;20041;-73
2021/10/01 01:13:07;;;;;;;7.55;1.60;;;;;;;9.97;84.22;101534.44;5036230;28;20039;-73
2021/10/01 01:15:48;;;;;;;3.58;1.60;;;;;;;9.98;84.58;101530.81;5069706;28;20025;-73
2021/10/01 01:18:19;;;;;;;4.60;1.52;;;;;;;10.04;83.96;101522.22;5069440;28;20238;-74
2021/10/01 01:20:49;;;;;;;5.68;1.38;;;;;;;10.00;83.93;101528.84;5070538;28;20103;-73
2021/10/01 01:23:54;;;;;;;6.45;1.60;;;;;;;10.03;83.84;101509.88;5069505;28;20079;-73
2021/10/01 01:27:02;;;;;;;6.18;1.50;;;;;;;10.10;83.88;101526.19;5052632;28;20040;-73
2021/10/01 01:29:38;;;;;;;7.15;1.67;;;;;;;10.09;83.35;101511.13;5052376;28;20377;-73
2021/10/01 01:32:20;;;;;;;8.75;1.85;;;;;;;10.08;83.54;101504.97;5052774;28;20036;-73
2021/10/01 01:34:51;;;;;;;9.18;2.42;;;;;;;10.11;83.76;101517.19;5052473;28;20481;-73
2021/10/01 01:37:31;;;;;;;5.75;1.67;;;;;;;10.04;83.74;101511.56;5052190;28;20098;-72
2021/10/01 01:39:59;;;;;;;6.15;1.60;;;;;;;10.05;84.01;101507.94;5052122;28;20032;-73
2021/10/01 01:42:27;;;;;;;6.32;1.30;;;;;;;10.01;84.55;101511.84;5052535;28;20033;-72
2021/10/01 01:44:53;;;;;;;5.50;1.75;;;;;;;10.04;84.41;101503.56;5068782;28;20020;-73
2021/10/01 01:47:19;;;;;;;7.63;1.98;;;;;;;10.06;84.38;101501.59;5048976;28;20233;-73
2021/10/01 01:49:45;;;;;;;4.18;1.40;;;;;;;10.04;84.45;101506.22;5061989;28;20047;-73
2021/10/01 01:52:14;;;;;;;7.80;1.20;;;;;;;10.04;84.24;101506.22;5052391;28;20100;-73
2021/10/01 01:54:41;;;;;;;7.47;1.70;;;;;;;9.97;84.58;101499.75;5035434;28;20032;-73
2021/10/01 01:57:08;;;;;;;7.20;1.30;;;;;;;10.04;84.57;101492.88;5068883;28;20040;-73
2021/10/01 01:59:36;;;;;;;9.93;1.58;;;;;;;10.01;84.77;101490.50;5051959;28;20408;-72
2021/10/01 02:02:03;;;;;;;6.55;2.03;;;;;;;10.00;84.77;101491.50;5035518;28;20036;-73
2021/10/01 02:04:29;;;;;;;4.30;1.85;;;;;;;10.03;84.60;101493.03;5068385;28;20468;-73
2021/10/01 02:06:55;;;;;;;2.95;1.60;;;;;;;10.05;84.68;101485.75;5051845;28;20352;-72
2021/10/01 02:09:23;;;;;;;5.00;2.10;;;;;;;9.99;85.12;101476.47;5051397;28;20047;-73
2021/10/01 02:11:49;;;;;;;5.13;1.45;;;;;;;9.97;84.93;101483.75;5049008;28;20051;-72
2021/10/01 02:14:23;;;;;;;5.47;1.50;;;;;;;9.97;85.31;101481.09;5067515;28;20028;-72
2021/10/01 02:16:50;;;;;;;5.88;3.05;;;;;;;10.00;85.32;101472.00;5068175;28;20040;-72
2021/10/01 02:19:19;;;;;;;7.60;1.52;;;;;;;10.03;85.17;101472.53;5068297;28;20182;-73
2021/10/01 02:21:48;;;;;;;5.28;2.13;;;;;;;10.10;84.92;101460.31;5051503;28;20634;-73
2021/10/01 02:24:15;;;;;;;2.80;1.40;;;;;;;10.02;84.80;101454.00;5068063;28;20032;-73
2021/10/01 02:27:03;;;;;;;3.30;1.42;;;;;;;10.06;84.95;101458.91;5051165;28;20028;-73
2021/10/01 02:29:41;;;;;;;4.30;1.30;;;;;;;10.07;85.34;101454.44;5051363;28;20031;-73
2021/10/01 02:32:29;;;;;;;6.70;1.50;;;;;;;9.98;85.22;101456.13;5051233;28;20516;-73
2021/10/01 02:34:55;;;;;;;6.60;1.58;;;;;;;10.00;85.11;101450.66;5051391;28;20039;-72
2021/10/01 02:37:23;;;;;;;5.18;1.52;;;;;;;10.04;85.13;101447.53;5067856;28;20024;-73
2021/10/01 02:39:51;;;;;;;6.47;2.08;;;;;;;10.00;85.01;101440.81;5067750;28;20033;-72
2021/10/01 02:42:19;;;;;;;3.13;1.40;;;;;;;10.03;85.00;101435.19;5051183;28;20043;-72
2021/10/01 02:44:47;;;;;;;2.70;0.90;;;;;;;10.06;85.00;101440.22;5050620;28;20263;-73
2021/10/01 02:47:14;;;;;;;9.70;1.70;;;;;;;10.00;84.57;101423.97;5051135;28;20033;-72
2021/10/01 02:49:42;;;;;;;5.97;3.17;;;;;;;10.04;84.72;101420.84;5068554;28;20052;-73
2021/10/01 02:52:26;;;;;;;4.97;2.15;;;;;;;10.03;84.92;101437.84;5034444;28;20036;-72
2021/10/01 02:55:12;;;;;;;6.95;1.45;;;;;;;10.08;84.34;101424.09;5067447;28;20040;-72
2021/10/01 02:58:06;;;;;;;4.38;1.30;;;;;;;10.14;84.19;101419.03;5050835;28;20028;-73
2021/10/01 03:00:33;;;;;;;3.58;1.38;;;;;;;10.03;84.22;101405.84;5050704;28;20100;-72
2021/10/01 03:03:02;;;;;;;5.82;1.73;;;;;;;10.12;84.09;101418.31;5050805;28;20032;-72
2021/10/01 03:05:29;;;;;;;6.60;1.77;;;;;;;10.12;83.99;101409.50;5050663;28;20579;-72
2021/10/01 03:07:56;;;;;;;4.47;1.35;;;;;;;10.11;84.19;101411.31;5068159;28;20051;-72
2021/10/01 03:10:23;;;;;;;4.57;1.60;;;;;;;10.16;83.64;101413.56;5050359;28;20457;-73
2021/10/01 03:12:49;;;;;;;3.50;1.20;;;;;;;10.13;83.84;101397.81;5067335;28;20028;-73
2021/10/01 03:15:15;;;;;;;6.07;1.25;;;;;;;10.16;83.94;101402.88;5030508;28;20033;-73
2021/10/01 03:17:45;;;;;;;5.93;1.60;;;;;;;10.17;83.49;101390.38;5050701;28;20035;-73
2021/10/01 03:20:11;;;;;;;5.38;1.50;;;;;;;10.14;83.72;101387.00;5050421;28;20044;-73
2021/10/01 03:22:41;;;;;;;6.25;1.83;;;;;;;10.20;83.73;101395.41;5034116;28;20378;-73
2021/10/01 03:25:10;;;;;;;5.25;1.38;;;;;;;10.20;83.42;101393.59;5067876;28;20037;-73
2021/10/01 03:27:37;;;;;;;5.85;1.15;;;;;;;10.18;83.76;101386.72;5050385;28;20408;-73
2021/10/01 03:30:07;;;;;;;1.83;1.20;;;;;;;10.14;84.24;101389.69;5049981;28;20028;-72
2021/10/01 03:32:32;;;;;;;7.53;2.25;;;;;;;10.18;83.87;101390.22;5068322;28;20514;-73
2021/10/01 03:35:02;;;;;;;4.23;1.20;;;;;;;10.29;83.08;101387.41;5067003;28;20036;-73
2021/10/01 03:37:32;;;;;;;7.03;1.55;;;;;;;10.25;83.05;101390.47;5050469;28;20082;-73
2021/10/01 03:40:02;;;;;;;5.10;1.30;;;;;;;10.28;83.09;101385.75;5050149;28;20024;-73
2021/10/01 03:42:29;;;;;;;3.10;1.40;;;;;;;10.32;82.83;101375.59;5050342;28;20032;-72
2021/10/01 03:44:55;;;;;;;6.83;1.30;;;;;;;10.29;82.70;101374.06;5033727;28;20025;-72
2021/10/01 03:47:21;;;;;;;8.38;1.60;;;;;;;10.28;83.08;101374.19;5068098;28;20043;-72
2021/10/01 03:49:46;;;;;;;6.45;1.45;;;;;;;10.29;82.51;101365.22;5066837;28;20025;-73
2021/10/01 03:52:13;;;;;;;5.32;1.35;;;;;;;10.27;82.88;101377.84;5030539;28;20037;-73
2021/10/01 03:54:42;;;;;;;3.53;1.10;;;;;;;10.32;82.33;101372.94;5063558;28;20071;-73
2021/10/01 03:57:08;;;;;;;2.83;1.33;;;;;;;10.30;82.83;101378.44;5050134;28;20032;-72
2021/10/01 03:59:33;;;;;;;4.65;1.55;;;;;;;10.36;82.36;101374.34;5066779;28;20033;-73
2021/10/01 04:01:59;;;;;;;3.35;2.17;;;;;;;10.34;82.45;101392.31;5066788;28;20389;-73
2021/10/01 04:04:25;;;;;;;1.67;0.90;;;;;;;10.32;82.37;101379.13;5067754;28;20036;-73
2021/10/01 04:06:51;;;;;;;4.18;1.50;;;;;;;10.33;82.55;101371.97;5050100;28;20043;-74
2021/10/01 04:09:16;;;;;;;4.33;1.70;;;;;;;10.30;82.65;101373.09;5066175;28;20043;-73
2021/10/01 04:11:42;;;;;;;5.83;2.20;;;;;;;10.30;82.31;101366.91;5050032;28;20044;-73
2021/10/01 04:14:09;;;;;;;4.55;1.17;;;;;;;10.30;82.56;101370.44;5049970;28;20029;-72
2021/10/01 04:16:35;;;;;;;6.68;2.05;;;;;;;10.28;82.40;101363.53;5066591;28;20067;-73
2021/10/01 04:19:01;;;;;;;4.60;1.67;;;;;;;10.29;82.25;101362.56;5066692;28;20084;-73
2021/10/01 04:21:26;;;;;;;5.47;1.47;;;;;;;10.22;82.92;101364.09;5049908;28;20028;-72
2021/10/01 04:23:52;;;;;;;5.67;1.87;;;;;;;10.15;83.49;101363.81;5067868;28;20036;-73
2021/10/01 04:26:32;;;;;;;6.53;1.73;;;;;;;10.17;83.10;101361.03;5066491;28;20032;-73
2021/10/01 04:28:58;;;;;;;4.90;1.10;;;;;;;10.15;83.17;101364.66;5033200;28;20044;-74
2021/10/01 04:31:23;;;;;;;6.80;1.10;;;;;;;10.10;83.71;101374.09;5049649;28;20051;-73
2021/10/01 04:33:49;;;;;;;4.53;1.45;;;;;;;10.17;83.17;101366.38;5033630;28;20064;-73
2021/10/01 04:36:15;;;;;;;12.23;1.60;;;;;;;10.17;83.21;101371.69;5050273;28;20024;-73
2021/10/01 04:38:41;;;;;;;3.70;1.75;;;;;;;10.19;82.77;101370.56;5070172;28;20078;-72
2021/10/01 04:41:07;;;;;;;;;;;;;;;10.20;82.52;101360.72;5070760;28;20020;-72
2021/10/01 04:43:32;;;;;;;;;;;;;;;10.23;82.25;101355.97;5053809;28;19923;-72
2021/10/01 04:46:07;;;;;;;4.32;1.00;;;;;;;10.14;82.65;101356.81;5071064;28;20349;-72
2021/10/01 04:48:34;;;;;;;4.15;1.65;;;;;;;10.13;82.64;101365.78;5053381;28;20054;-72
2021/10/01 04:50:59;;;;;;;5.03;1.20;;;;;;;10.14;82.60;101368.31;5069959;28;20028;-73
2021/10/01 04:53:25;;;;;;;4.88;1.77;;;;;;;10.16;82.69;101362.84;5053222;28;20031;-72
2021/10/01 04:55:51;;;;;;;6.10;1.02;;;;;;;10.17;82.72;101364.53;5036663;28;20058;-72
2021/10/01 04:58:16;;;;;;;5.13;1.07;;;;;;;10.14;82.52;101365.66;5069863;28;20036;-73
2021/10/01 05:01:03;;;;;;;6.65;1.30;;;;;;;10.09;82.50;101354.59;5070935;28;20334;-73
2021/10/01 05:03:55;;;;;;;5.15;1.38;;;;;;;10.04;83.44;101364.81;5069794;28;20628;-73
2021/10/01 05:06:32;;;;;;;3.67;1.25;;;;;;;10.07;83.03;101366.41;5070851;28;20044;-73
2021/10/01 05:09:17;;;;;;;4.28;1.42;;;;;;;10.07;82.70;101366.41;5070108;28;20055;-73
2021/10/01 05:12:01;;;;;;;2.25;1.52;;;;;;;10.02;82.75;101366.81;5070572;28;20504;-73
2021/10/01 05:14:46;;;;;;;4.32;1.50;;;;;;;10.10;82.71;101366.09;5069776;28;20056;-72
2021/10/01 05:17:44;;;;;;;4.20;1.17;;;;;;;10.08;82.53;101365.41;5036092;28;20076;-73
2021/10/01 05:20:43;;;;;;;4.68;1.67;;;;;;;10.10;82.40;101361.59;5070369;28;20036;-73
2021/10/01 05:23:39;;;;;;;2.72;1.30;;;;;;;10.13;82.59;101361.28;5052572;28;20032;-73
2021/10/01 05:26:05;;;;;;;4.57;1.13;;;;;;;10.12;82.13;101348.13;5052588;28;20036;-73
2021/10/01 05:28:30;;;;;;;3.17;1.73;;;;;;;10.14;81.98;101357.66;5069206;28;20036;-73
2021/10/01 05:30:55;;;;;;;3.30;0.90;;;;;;;10.18;81.65;101354.69;5070080;28;20097;-73
2021/10/01 05:33:21;;;;;;;4.47;1.33;;;;;;;10.18;81.80;101368.88;5070369;28;20044;-73
2021/10/01 05:35:47;;;;;;;4.83;1.13;;;;;;;10.13;81.39;101355.13;5069848;28;20036;-72
2021/10/01 05:38:13;;;;;;;4.65;1.55;;;;;;;10.14;81.65;101359.50;5069023;28;20419;-73
2021/10/01 05:40:40;;;;;;;1.27;0.82;;;;;;;10.07;81.97;101364.56;5068806;28;20060;-73
2021/10/01 05:43:06;;;;;;;3.15;1.10;;;;;;;10.04;81.91;101372.00;5052526;28;20036;-73
2021/10/01 05:45:33;;;;;;;7.60;1.55;;;;;;;10.14;81.96;101359.50;5068841;28;20043;-73
2021/10/01 05:48:17;;;;;;;5.95;1.50;;;;;;;10.08;82.13;101365.41;5069417;28;20055;-72
2021/10/01 05:51:07;;;;;;;2.67;1.20;;;;;;;10.08;82.17;101365.41;5068978;28;20101;-73
2021/10/01 05:56:52;;;;;;;3.67;1.30;;;;;;;10.04;82.22;101359.50;5069510;28;20047;-73
2021/10/01 05:59:27;;;;;;;5.82;1.33;;;;;;;10.04;82.67;101350.66;5052015;28;20028;-73
2021/10/01 06:01:52;;;;;;;4.73;1.10;;;;;;;9.97;82.95;101369.06;5068627;28;20050;-73
2021/10/01 06:04:18;;;;;;;3.57;1.10;;;;;;;10.00;83.00;101375.97;5068630;28;20032;-73
2021/10/01 06:06:43;;;;;;;6.97;1.47;;;;;;;9.98;82.41;101368.09;5051816;28;20332;-73
2021/10/01 06:09:11;;;;;;;8.10;1.40;;;;;;;10.08;82.57;101368.06;5068738;28;20044;-73
2021/10/01 06:11:38;;;;;;;3.08;1.23;;;;;;;10.03;82.49;101371.16;5069372;28;20044;-73
2021/10/01 06:14:06;;;;;;;5.35;1.17;;;;;;;10.11;82.69;101365.97;5068381;28;20028;-73
2021/10/01 06:16:32;;;;;;;5.80;1.27;;;;;;;10.12;82.47;101370.28;5069144;28;20037;-73
2021/10/01 06:18:58;;;;;;;;;;;;;;;10.15;82.29;101364.66;5069591;28;20037;-73
2021/10/01 06:21:23;;;;;;;;;;;;;;;10.10;82.12;101358.94;5069601;28;19908;-72
2021/10/01 06:23:48;;;;;;;2.53;0.80;;;;;;;9.98;82.69;101353.91;5069164;28;20580;-73
2021/10/01 06:26:14;;;;;;;4.97;1.27;;;;;;;10.00;83.04;101363.44;5050632;28;20357;-73
2021/10/01 06:28:39;;;;;;;4.20;1.20;;;;;;;10.04;82.70;101354.16;5067687;28;20127;-73
2021/10/01 06:31:05;;;;;;;3.47;1.00;;;;;;;10.09;82.56;101357.25;5067534;28;20051;-73
2021/10/01 06:33:31;;;;;;;4.23;1.20;;;;;;;10.07;82.34;101356.56;5067536;28;20025;-72
2021/10/01 06:35:58;;;;;;;5.25;1.30;;;;;;;10.23;81.99;101355.97;5067117;28;20278;-72
2021/10/01 06:38:23;;;;;;;6.70;1.30;;;;;;;10.19;81.98;101343.03;5067376;28;20035;-73
2021/10/01 06:40:49;;;;;;;7.07;2.40;;;;;;;10.23;82.25;101347.09;5066248;28;20036;-73
2021/10/01 06:43:16;;;;;;;3.65;1.30;;;;;;;10.35;81.59;101340.63;5050792;28;20043;-73
2021/10/01 06:45:44;;;;;;;5.68;1.30;;;;;;;10.34;81.69;101346.94;5047963;28;20043;-73
2021/10/01 06:48:18;;;;;;;4.13;1.05;;;;;;;10.53;81.09;101346.84;5060443;28;20060;-73
2021/10/01 07:20:54;;;;;;;3.25;1.38;;;;;;;10.56;80.33;101341.25;5067738;28;20384;-73
2021/10/01 07:34:58;;;;;;;3.97;1.48;;;;;;;11.13;78.56;101346.38;5067820;28;20024;-73
2021/10/01 08:18:18;;;;;;;3.72;1.13;;;;;;;11.33;77.90;101330.19;5067396;28;20155;-73
2021/10/01 08:21:01;;;;;;;6.90;1.30;;;;;;;11.61;77.18;101325.56;5071342;28;20066;-73
2021/10/01 08:23:26;;;;;;;8.45;1.30;;;;;;;11.71;76.44;101334.38;5054055;28;20033;-74
2021/10/01 08:25:52;;;;;;;4.60;0.97;;;;;;;11.57;76.37;101327.75;5070907;28;20028;-73
2021/10/01 08:28:17;;;;;;;2.20;1.10;;;;;;;11.75;77.78;101343.78;5053941;28;20036;-73
2021/10/01 08:31:08;;;;;;;5.90;1.52;;;;;;;11.47;79.23;101344.84;5070818;28;20491;-73
2021/10/01 08:33:34;;;;;;;4.73;1.20;;;;;;;11.55;80.31;101361.81;5071482;28;20036;-73
2021/10/01 08:36:00;;;;;;;4.13;1.05;;;;;;;11.76;79.90;101355.31;5053827;28;20043;-73
2021/10/01 08:38:25;;;;;;;6.32;1.35;;;;;;;11.53;80.12;101354.94;5054016;28;20041;-74
2021/10/01 08:40:51;;;;;;;2.63;1.70;;;;;;;11.54;80.51;101369.97;5071220;28;20032;-73
2021/10/01 08:43:17;;;;;;;3.88;1.40;;;;;;;11.68;81.41;101379.28;5071473;28;20636;-74
2021/10/01 08:45:42;;;;;;;10.20;2.92;;;;;;;11.82;80.56;101381.41;5071343;28;20032;-73
2021/10/01 08:48:08;;;;;;;10.38;2.25;;;;;;;11.99;79.49;101367.22;5053736;28;20043;-72
2021/10/01 08:50:34;;;;;;;4.57;1.38;;;;;;;12.25;76.94;101353.81;5053525;28;20028;-73
2021/10/01 08:53:00;;;;;;;3.38;1.13;;;;;;;12.48;76.29;101353.28;5071267;28;20036;-73
2021/10/01 08:55:27;;;;;;;10.55;1.85;;;;;;;12.74;75.28;101337.16;5071054;28;20507;-73
2021/10/01 08:57:53;;;;;;;4.55;1.30;;;;;;;12.27;75.78;101342.09;5071188;28;20039;-73
2021/10/01 09:00:20;;;;;;;5.00;1.20;;;;;;;12.74;75.51;101357.75;5053444;28;20036;-73
2021/10/01 09:02:46;;;;;;;6.47;1.40;;;;;;;13.23;73.40;101333.75;5071091;28;20041;-73
2021/10/01 09:05:13;;;;;;;2.10;1.10;;;;;;;14.18;70.83;101306.34;5069877;28;20095;-73
2021/10/01 09:07:38;;;;;;;2.20;0.63;;;;;;;14.41;70.41;101309.13;5071081;28;20512;-73
2021/10/01 09:10:11;;;;;;;3.97;1.27;;;;;;;14.98;67.55;101292.72;5069128;28;20074;-73
2021/10/01 09:12:37;;;;;;;5.45;1.10;;;;;;;14.29;68.17;101288.03;5071223;28;20425;-73
2021/10/01 09:15:04;;;;;;;9.20;1.83;;;;;;;14.27;68.63;101290.03;5069512;28;20154;-73
2021/10/01 09:17:33;;;;;;;8.88;2.13;;;;;;;14.15;68.72;101284.19;5053129;28;20445;-73
2021/10/01 09:19:59;;;;;;;7.22;1.48;;;;;;;14.84;68.55;101301.56;5070097;28;20039;-73
2021/10/01 09:22:34;;;;;;;3.13;1.13;;;;;;;14.27;68.00;101278.47;5070646;28;20032;-72
2021/10/01 09:25:10;;;;;;;4.35;1.40;;;;;;;14.21;68.43;101288.06;5069351;28;20036;-73
2021/10/01 09:27:39;;;;;;;3.97;1.75;;;;;;;14.50;68.79;101290.13;5070551;28;20044;-73
2021/10/01 09:30:06;;;;;;;4.72;1.20;;;;;;;15.15;67.44;101283.56;5069262;28;20033;-73
2021/10/01 09:32:32;;;;;;;5.40;1.00;;;;;;;15.13;66.67;101274.00;5070641;28;20086;-73
2021/10/01 09:34:57;;;;;;;3.23;1.10;;;;;;;14.63;67.14;101273.44;5069977;28;20025;-72
2021/10/01 09:37:27;;;;;;;2.90;1.10;;;;;;;14.60;67.06;101256.84;5070376;28;20147;-73
2021/10/01 09:39:58;;;;;;;3.63;1.13;;;;;;;14.96;66.70;101259.81;5051819;28;20037;-73
2021/10/01 09:42:36;;;;;;;3.38;1.08;;;;;;;15.14;67.15;101260.34;5069283;28;20032;-73
2021/10/01 09:45:08;;;;;;;4.57;1.08;;;;;;;15.23;67.08;101257.59;5052090;28;20115;-73
2021/10/01 09:47:48;;;;;;;4.85;1.20;;;;;;;15.02;65.80;101221.44;5070170;28;20128;-73
2021/10/01 09:50:19;;;;;;;7.38;1.65;;;;;;;15.63;65.29;101238.38;5069764;28;20071;-72
2021/10/01 09:52:48;;;;;;;8.23;2.63;;;;;;;15.57;65.28;101228.38;5035656;28;20730;-72
2021/10/01 09:55:18;;;;;;;2.22;0.98;;;;;;;15.04;66.52;101226.66;5068945;28;20447;-72
2021/10/01 09:58:20;;;;;;;7.45;1.13;;;;;;;15.30;65.55;101228.97;5068757;28;20032;-72
2021/10/01 10:00:53;;;;;;;3.47;1.33;;;;;;;15.04;66.30;101227.50;4987426;28;20044;-73
2021/10/01 10:03:22;;;;;;;2.50;1.23;;;;;;;15.60;65.76;101228.00;5057244;28;20053;-72
2021/10/01 10:06:05;;;;;;;4.10;1.00;;;;;;;15.65;65.14;101215.84;5069407;28;20039;-72
2021/10/01 10:08:39;;;;;;;5.40;1.40;;;;;;;15.54;64.66;101222.50;5069717;28;20166;-72
2021/10/01 10:11:16;;;;;;;2.47;0.88;;;;;;;15.45;66.01;101237.88;5069165;28;20033;-73
2021/10/01 10:13:47;;;;;;;3.97;1.15;;;;;;;15.05;65.84;101221.09;5052054;28;20055;-73
2021/10/01 10:16:25;;;;;;;2.58;1.08;;;;;;;15.36;66.10;101225.56;5069263;28;20058;-73
2021/10/01 10:18:57;;;;;;;2.17;0.95;;;;;;;15.47;65.32;101222.41;5068987;28;20033;-73
2021/10/01 10:21:22;;;;;;;4.75;1.10;;;;;;;15.98;63.64;101211.78;5069588;28;20036;-73
2021/10/01 10:23:48;;;;;;;4.13;1.50;;;;;;;15.40;65.82;101210.69;5051617;28;20044;-73
2021/10/01 10:26:14;;;;;;;5.53;1.03;;;;;;;15.99;65.15;101221.56;5069086;28;20109;-73
2021/10/01 10:28:43;;;;;;;5.32;1.30;;;;;;;16.33;63.54;101217.41;5067456;28;20377;-73
2021/10/01 10:31:09;;;;;;;3.50;1.77;;;;;;;16.20;64.52;101206.47;5067894;28;20024;-72
2021/10/01 10:33:39;;;;;;;4.30;2.05;;;;;;;16.22;64.24;101209.81;5067187;28;20043;-73
2021/10/01 10:36:26;;;;;;;2.85;1.10;;;;;;;15.50;65.52;101197.84;5068067;28;20028;-73
2021/10/01 10:38:53;;;;;;;4.85;1.25;;;;;;;15.62;65.15;101203.59;5068741;28;20037;-73
2021/10/01 10:41:27;;;;;;;7.07;3.05;;;;;;;15.82;64.98;101190.44;5051383;28;20050;-73
2021/10/01 10:43:53;;;;;;;5.20;1.60;;;;;;;16.00;64.18;101190.06;5051328;28;20029;-72
2021/10/01 10:46:34;;;;;;;2.55;0.90;;;;;;;16.60;63.57;101191.59;5068647;28;20036;-72
2021/10/01 10:49:24;;;;;;;6.03;1.25;;;;;;;16.08;63.99;101172.97;5067456;28;20039;-73
2021/10/01 10:52:12;;;;;;;3.45;1.20;;;;;;;16.08;63.66;101159.50;5068908;28;20479;-73
2021/10/01 10:54:51;;;;;;;4.05;1.17;;;;;;;16.02;63.41;101171.88;5068592;28;20052;-79
2021/10/01 10:57:16;;;;;;;5.03;1.65;;;;;;;16.50;63.71;101179.47;5067713;28;20085;-79
2021/10/01 10:59:49;;;;;;;6.40;1.15;;;;;;;16.09;64.77;101177.34;5068526;28;20036;-78
2021/10/01 11:02:44;;;;;;;3.58;0.90;;;;;;;16.75;63.30;101175.38;5034910;28;20032;-78
2021/10/01 11:05:26;;;;;;;4.15;0.95;;;;;;;16.54;64.38;101180.75;5067570;28;20048;-78
2021/10/01 11:07:54;;;;;;;3.30;1.00;;;;;;;17.39;62.10;101185.25;5068101;28;20064;-79
2021/10/01 11:10:46;;;;;;;3.88;1.00;;;;;;;17.02;62.10;101162.13;5067643;28;20736;-79
2021/10/01 11:13:18;;;;;;;6.45;1.63;;;;;;;17.26;61.41;101164.41;5068692;28;20353;-79
2021/10/01 11:16:08;;;;;;;4.65;1.10;;;;;;;17.16;61.72;101155.00;5068300;28;20032;-78
2021/10/01 11:18:44;;;;;;;3.35;1.10;;;;;;;17.00;62.79;101165.06;5067753;28;20040;-78
2021/10/01 11:21:24;;;;;;;2.85;0.90;;;;;;;17.25;61.05;101140.31;5067753;28;20413;-79
2021/10/01 11:24:10;;;;;;;4.57;1.52;;;;;;;17.08;61.64;101147.88;5066523;28;20609;-79
2021/10/01 11:26:59;;;;;;;3.13;1.48;;;;;;;16.52;63.47;101164.75;5049926;28;20063;-78
2021/10/01 11:29:27;;;;;;;5.00;1.10;;;;;;;16.71;63.12;101168.69;5066816;28;20044;-78
2021/10/01 11:31:56;;;;;;;7.82;2.05;;;;;;;16.41;63.55;101165.25;5068801;28;20458;-78
2021/10/01 11:34:40;;;;;;;2.75;1.15;;;;;;;16.65;62.85;101166.78;5049981;28;20446;-79
2021/10/01 11:37:28;;;;;;;4.97;1.45;;;;;;;16.83;62.79;101156.41;5048676;28;20044;-78
2021/10/01 11:39:57;;;;;;;2.83;1.30;;;;;;;16.32;64.41;101171.78;5067496;28;20044;-76
2021/10/01 11:42:32;;;;;;;3.75;1.15;;;;;;;16.29;64.37;101151.44;5067522;28;20107;-78
2021/10/01 11:45:06;;;;;;;4.32;1.13;;;;;;;16.42;64.21;101158.84;5049566;28;20051;-79
2021/10/01 11:47:32;;;;;;;2.42;1.08;;;;;;;16.14;64.11;101135.34;5070399;28;20044;-78
2021/10/01 11:49:58;;;;;;;4.90;1.00;;;;;;;16.27;64.81;101158.06;5070474;28;20045;-78
2021/10/01 11:52:27;;;;;;;5.63;1.17;;;;;;;16.86;63.15;101153.31;5071155;28;20051;-78
2021/10/01 11:54:55;;;;;;;9.68;1.67;;;;;;;17.12;62.30;101151.88;5054012;28;20111;-78
2021/10/01 11:57:21;;;;;;;7.50;1.13;;;;;;;16.65;62.57;101126.34;5053535;28;20059;-78
2021/10/01 11:59:54;;;;;;;7.65;0.95;;;;;;;16.50;63.50;101142.56;5070224;28;20029;-78
2021/10/01 12:02:47;;;;;;;11.98;2.42;;;;;;;16.65;63.57;101146.03;5070192;28;20087;-78
2021/10/01 12:05:17;;;;;;;4.72;1.33;;;;;;;16.18;64.16;101141.19;5067579;28;20055;-78
2021/10/01 12:07:45;;;;;;;5.20;1.10;;;;;;;16.24;63.76;101129.63;5069201;28;20040;-79
2021/10/01 12:10:10;;;;;;;8.38;1.30;;;;;;;16.14;63.26;101123.72;5069794;28;20020;-79
2021/10/01 12:12:36;;;;;;;4.03;1.17;;;;;;;16.00;63.26;101111.97;5053922;28;20514;-78
2021/10/01 12:15:02;;;;;;;2.43;0.87;;;;;;;16.64;61.67;101103.91;5071733;28;20032;-79
2021/10/01 12:17:37;;;;;;;12.75;1.80;;;;;;;17.52;60.58;101122.44;5071120;28;20044;-79
2021/10/01 12:20:03;;;;;;;5.80;1.00;;;;;;;17.97;57.95;101090.47;5070866;28;20083;-79
2021/10/01 12:22:32;;;;;;;4.75;1.63;;;;;;;17.56;59.76;101106.66;5071053;28;20074;-78
2021/10/01 12:24:58;;;;;;;5.65;1.35;;;;;;;17.88;58.84;101083.56;5051520;28;20032;-78
2021/10/01 12:27:40;;;;;;;6.65;1.25;;;;;;;17.84;59.07;101090.41;5051688;28;20075;-78
2021/10/01 12:30:07;;;;;;;5.35;1.50;;;;;;;18.04;57.85;101058.06;5034774;28;20040;-78
2021/10/01 12:32:34;;;;;;;3.72;1.10;;;;;;;17.35;58.86;101070.66;5068040;28;20040;-79
2021/10/01 12:34:59;;;;;;;;;;;;;;;17.58;58.44;101067.63;5035345;28;20017;-78
2021/10/01 12:37:29;;;;;;;3.00;1.23;;;;;;;18.17;57.82;101068.06;5051592;28;19922;-79
2021/10/01 12:40:00;;;;;;;5.63;1.35;;;;;;;18.37;56.45;101046.50;5052750;28;20035;-78
2021/10/01 12:42:32;;;;;;;6.57;1.20;;;;;;;18.16;58.22;101061.00;5069512;28;20037;-78
2021/10/01 12:45:02;;;;;;;3.20;1.17;;;;;;;18.09;57.50;101042.06;5052366;28;20515;-79
2021/10/01 12:47:31;;;;;;;5.70;1.50;;;;;;;17.94;57.22;101044.97;5070251;28;20540;-77
2021/10/01 12:50:06;;;;;;;4.38;1.20;;;;;;;17.93;58.24;101045.97;5069950;28;20032;-79
2021/10/01 12:52:35;;;;;;;5.63;1.45;;;;;;;18.18;58.46;101053.53;5070452;28;20036;-79
2021/10/01 12:55:07;;;;;;;2.22;1.05;;;;;;;17.04;59.04;101027.91;5069189;28;20103;-78
2021/10/01 12:57:34;;;;;;;4.35;1.88;;;;;;;17.84;58.35;101058.00;5068137;28;20127;-79
2021/10/01 13:00:03;;;;;;;5.68;1.20;;;;;;;17.31;59.04;101047.78;5069065;28;20032;-79
2021/10/01 13:02:34;;;;;;;6.78;1.55;;;;;;;17.85;58.58;101048.88;5070112;28;20072;-78
2021/10/01 13:05:05;;;;;;;5.07;1.08;;;;;;;18.07;58.04;101044.97;5052390;28;20041;-78
2021/10/01 13:07:32;;;;;;;4.00;1.10;;;;;;;18.28;58.18;101048.56;5051977;28;20374;-78
2021/10/01 13:10:05;;;;;;;4.07;1.13;;;;;;;18.54;57.96;101061.25;5069273;28;20036;-79
2021/10/01 13:12:38;;;;;;;6.03;1.40;;;;;;;17.71;59.52;101064.19;5069384;28;20040;-77